sensor_id;sensor_type;location;lat;lon;timestamp;P1;durP1;ratioP1;P2;durP2;ratioP2
83728;SDS011;73707;56.480;-2.840;2024-02-26T00:00:35;2.38;;;0.77;;
83728;SDS011;73707;56.480;-2.840;2024-02-26T00:03:01;1.53;;;0.50;;
83728;SDS011;73707;56.480;-2.840;2024-02-26T00:05:26;1.08;;;0.60;;
83728;SDS011;73707;56.480;-2.840;2024-02-26T00:07:52;0.47;;;0.40;;
83728;SDS011;73707;56.480;-2.840;2024-02-26T00:10:18;2.67;;;0.70;;
83728;SDS011;73707;56.480;-2.840;2024-02-26T00:12:44;1.05;;;0.70;;
83728;SDS011;73707;56.480;-2.840;2024-02-26T00:15:09;0.60;;;0.40;;
83728;SDS011;73707;56.480;-2.840;2024-02-26T00:17:35;1.17;;;0.43;;
83728;SDS011;73707;56.480;-2.840;2024-02-26T00:20:04;1.27;;;0.50;;
83728;SDS011;73707;56.480;-2.840;2024-02-26T00:22:33;1.05;;;0.50;;
83728;SDS011;73707;56.480;-2.840;2024-02-26T00:24:59;1.40;;;0.52;;
83728;SDS011;73707;56.480;-2.840;2024-02-26T00:27:25;2.50;;;0.90;;
83728;SDS011;73707;56.480;-2.840;2024-02-26T00:29:51;0.85;;;0.43;;
83728;SDS011;73707;56.480;-2.840;2024-02-26T00:32:17;2.03;;;0.30;;
83728;SDS011;73707;56.480;-2.840;2024-02-26T00:34:43;0.43;;;0.35;;
83728;SDS011;73707;56.480;-2.840;2024-02-26T00:37:09;1.92;;;0.52;;
83728;SDS011;73707;56.480;-2.840;2024-02-26T00:39:34;0.80;;;0.50;;
83728;SDS011;73707;56.480;-2.840;2024-02-26T00:42:00;2.58;;;0.98;;
83728;SDS011;73707;56.480;-2.840;2024-02-26T00:44:26;1.70;;;0.70;;
83728;SDS011;73707;56.480;-2.840;2024-02-26T00:46:51;2.33;;;0.60;;
83728;SDS011;73707;56.480;-2.840;2024-02-26T00:49:17;1.17;;;0.40;;
83728;SDS011;73707;56.480;-2.840;2024-02-26T00:51:43;0.70;;;0.50;;
83728;SDS011;73707;56.480;-2.840;2024-02-26T00:54:08;1.00;;;0.50;;
83728;SDS011;73707;56.480;-2.840;2024-02-26T00:56:34;0.70;;;0.52;;
83728;SDS011;73707;56.480;-2.840;2024-02-26T00:59:00;1.40;;;0.60;;
83728;SDS011;73707;56.480;-2.840;2024-02-26T01:01:26;0.63;;;0.40;;
83728;SDS011;73707;56.480;-2.840;2024-02-26T01:03:52;1.05;;;0.40;;
83728;SDS011;73707;56.480;-2.840;2024-02-26T01:06:17;0.97;;;0.57;;
83728;SDS011;73707;56.480;-2.840;2024-02-26T01:08:43;0.95;;;0.52;;
83728;SDS011;73707;56.480;-2.840;2024-02-26T01:11:09;1.53;;;0.70;;
83728;SDS011;73707;56.480;-2.840;2024-02-26T01:13:35;0.57;;;0.32;;
83728;SDS011;73707;56.480;-2.840;2024-02-26T01:16:00;1.33;;;0.50;;
83728;SDS011;73707;56.480;-2.840;2024-02-26T01:18:26;1.38;;;0.60;;
83728;SDS011;73707;56.480;-2.840;2024-02-26T01:20:52;3.00;;;0.50;;
83728;SDS011;73707;56.480;-2.840;2024-02-26T01:23:19;1.00;;;0.30;;
83728;SDS011;73707;56.480;-2.840;2024-02-26T01:25:45;2.03;;;0.60;;
83728;SDS011;73707;56.480;-2.840;2024-02-26T01:28:11;0.77;;;0.40;;
83728;SDS011;73707;56.480;-2.840;2024-02-26T01:30:37;1.10;;;0.50;;
83728;SDS011;73707;56.480;-2.840;2024-02-26T01:33:02;0.63;;;0.40;;
83728;SDS011;73707;56.480;-2.840;2024-02-26T01:35:28;2.47;;;0.40;;
83728;SDS011;73707;56.480;-2.840;2024-02-26T01:37:55;0.70;;;0.38;;
83728;SDS011;73707;56.480;-2.840;2024-02-26T01:40:21;0.60;;;0.30;;
83728;SDS011;73707;56.480;-2.840;2024-02-26T01:42:47;0.60;;;0.30;;
83728;SDS011;73707;56.480;-2.840;2024-02-26T01:45:16;0.82;;;0.50;;
83728;SDS011;73707;56.480;-2.840;2024-02-26T01:47:51;1.98;;;0.77;;
83728;SDS011;73707;56.480;-2.840;2024-02-26T01:50:17;0.98;;;0.50;;
83728;SDS011;73707;56.480;-2.840;2024-02-26T01:52:44;1.33;;;0.30;;
83728;SDS011;73707;56.480;-2.840;2024-02-26T01:55:14;0.75;;;0.50;;
83728;SDS011;73707;56.480;-2.840;2024-02-26T01:57:42;0.40;;;0.40;;
83728;SDS011;73707;56.480;-2.840;2024-02-26T02:00:11;0.65;;;0.30;;
83728;SDS011;73707;56.480;-2.840;2024-02-26T02:02:37;0.80;;;0.28;;
83728;SDS011;73707;56.480;-2.840;2024-02-26T02:05:05;0.70;;;0.60;;
83728;SDS011;73707;56.480;-2.840;2024-02-26T02:07:32;1.40;;;0.40;;
83728;SDS011;73707;56.480;-2.840;2024-02-26T02:09:59;0.70;;;0.25;;
83728;SDS011;73707;56.480;-2.840;2024-02-26T02:12:25;0.60;;;0.30;;
83728;SDS011;73707;56.480;-2.840;2024-02-26T02:14:52;0.88;;;0.20;;
83728;SDS011;73707;56.480;-2.840;2024-02-26T02:17:18;0.40;;;0.33;;
83728;SDS011;73707;56.480;-2.840;2024-02-26T02:19:44;0.52;;;0.30;;
83728;SDS011;73707;56.480;-2.840;2024-02-26T02:22:10;1.20;;;0.65;;
83728;SDS011;73707;56.480;-2.840;2024-02-26T02:24:35;0.98;;;0.28;;
83728;SDS011;73707;56.480;-2.840;2024-02-26T02:27:01;0.90;;;0.40;;
83728;SDS011;73707;56.480;-2.840;2024-02-26T02:29:28;0.50;;;0.30;;
83728;SDS011;73707;56.480;-2.840;2024-02-26T02:31:54;2.87;;;0.30;;
83728;SDS011;73707;56.480;-2.840;2024-02-26T02:34:21;0.60;;;0.30;;
83728;SDS011;73707;56.480;-2.840;2024-02-26T02:36:53;0.80;;;0.40;;
83728;SDS011;73707;56.480;-2.840;2024-02-26T02:39:20;0.50;;;0.40;;
83728;SDS011;73707;56.480;-2.840;2024-02-26T02:41:46;0.60;;;0.30;;
83728;SDS011;73707;56.480;-2.840;2024-02-26T02:44:11;2.30;;;0.50;;
83728;SDS011;73707;56.480;-2.840;2024-02-26T02:46:37;0.73;;;0.32;;
83728;SDS011;73707;56.480;-2.840;2024-02-26T02:49:03;0.70;;;0.30;;
83728;SDS011;73707;56.480;-2.840;2024-02-26T02:51:29;0.87;;;0.40;;
83728;SDS011;73707;56.480;-2.840;2024-02-26T02:53:55;0.40;;;0.30;;
83728;SDS011;73707;56.480;-2.840;2024-02-26T02:56:20;0.60;;;0.30;;
83728;SDS011;73707;56.480;-2.840;2024-02-26T02:58:46;0.20;;;0.20;;
83728;SDS011;73707;56.480;-2.840;2024-02-26T03:01:13;1.00;;;0.30;;
83728;SDS011;73707;56.480;-2.840;2024-02-26T03:03:38;1.08;;;0.40;;
83728;SDS011;73707;56.480;-2.840;2024-02-26T03:06:04;1.57;;;0.33;;
83728;SDS011;73707;56.480;-2.840;2024-02-26T03:08:30;1.15;;;0.38;;
83728;SDS011;73707;56.480;-2.840;2024-02-26T03:10:55;0.20;;;0.20;;
83728;SDS011;73707;56.480;-2.840;2024-02-26T03:13:23;0.50;;;0.30;;
83728;SDS011;73707;56.480;-2.840;2024-02-26T03:15:49;0.60;;;0.30;;
83728;SDS011;73707;56.480;-2.840;2024-02-26T03:18:15;0.70;;;0.40;;
83728;SDS011;73707;56.480;-2.840;2024-02-26T03:20:40;0.57;;;0.22;;
83728;SDS011;73707;56.480;-2.840;2024-02-26T03:23:06;1.00;;;0.40;;
83728;SDS011;73707;56.480;-2.840;2024-02-26T03:25:34;0.60;;;0.30;;
83728;SDS011;73707;56.480;-2.840;2024-02-26T03:28:00;0.90;;;0.50;;
83728;SDS011;73707;56.480;-2.840;2024-02-26T03:30:26;1.50;;;0.50;;
83728;SDS011;73707;56.480;-2.840;2024-02-26T03:32:52;0.85;;;0.40;;
83728;SDS011;73707;56.480;-2.840;2024-02-26T03:35:18;0.60;;;0.50;;
83728;SDS011;73707;56.480;-2.840;2024-02-26T03:37:43;1.30;;;0.67;;
83728;SDS011;73707;56.480;-2.840;2024-02-26T03:40:11;0.52;;;0.20;;
83728;SDS011;73707;56.480;-2.840;2024-02-26T03:42:39;0.43;;;0.20;;
83728;SDS011;73707;56.480;-2.840;2024-02-26T03:45:05;0.60;;;0.37;;
83728;SDS011;73707;56.480;-2.840;2024-02-26T03:47:31;0.60;;;0.40;;
83728;SDS011;73707;56.480;-2.840;2024-02-26T03:49:57;0.65;;;0.40;;
83728;SDS011;73707;56.480;-2.840;2024-02-26T03:52:24;1.92;;;0.30;;
83728;SDS011;73707;56.480;-2.840;2024-02-26T03:54:50;0.33;;;0.20;;
83728;SDS011;73707;56.480;-2.840;2024-02-26T03:57:15;0.40;;;0.30;;
83728;SDS011;73707;56.480;-2.840;2024-02-26T03:59:41;0.50;;;0.30;;
83728;SDS011;73707;56.480;-2.840;2024-02-26T04:02:06;1.00;;;0.30;;
83728;SDS011;73707;56.480;-2.840;2024-02-26T04:04:35;0.90;;;0.50;;
83728;SDS011;73707;56.480;-2.840;2024-02-26T04:07:01;0.32;;;0.17;;
83728;SDS011;73707;56.480;-2.840;2024-02-26T04:09:26;0.50;;;0.23;;
83728;SDS011;73707;56.480;-2.840;2024-02-26T04:11:52;0.55;;;0.38;;
83728;SDS011;73707;56.480;-2.840;2024-02-26T04:14:18;0.57;;;0.30;;
83728;SDS011;73707;56.480;-2.840;2024-02-26T04:16:43;1.25;;;0.32;;
83728;SDS011;73707;56.480;-2.840;2024-02-26T04:19:09;0.82;;;0.20;;
83728;SDS011;73707;56.480;-2.840;2024-02-26T04:21:35;0.10;;;0.10;;
83728;SDS011;73707;56.480;-2.840;2024-02-26T04:24:00;0.57;;;0.30;;
83728;SDS011;73707;56.480;-2.840;2024-02-26T04:26:27;0.60;;;0.30;;
83728;SDS011;73707;56.480;-2.840;2024-02-26T04:28:54;1.80;;;0.30;;
83728;SDS011;73707;56.480;-2.840;2024-02-26T04:31:19;0.40;;;0.20;;
83728;SDS011;73707;56.480;-2.840;2024-02-26T04:33:45;0.70;;;0.30;;
83728;SDS011;73707;56.480;-2.840;2024-02-26T04:36:14;1.10;;;0.20;;
83728;SDS011;73707;56.480;-2.840;2024-02-26T04:38:41;1.23;;;0.20;;
83728;SDS011;73707;56.480;-2.840;2024-02-26T04:41:07;0.60;;;0.30;;
83728;SDS011;73707;56.480;-2.840;2024-02-26T04:43:33;1.93;;;0.27;;
83728;SDS011;73707;56.480;-2.840;2024-02-26T04:45:58;1.10;;;0.30;;
83728;SDS011;73707;56.480;-2.840;2024-02-26T04:48:24;0.13;;;0.10;;
83728;SDS011;73707;56.480;-2.840;2024-02-26T04:50:51;0.50;;;0.20;;
83728;SDS011;73707;56.480;-2.840;2024-02-26T04:53:17;0.17;;;0.17;;
83728;SDS011;73707;56.480;-2.840;2024-02-26T04:55:43;0.30;;;0.20;;
83728;SDS011;73707;56.480;-2.840;2024-02-26T04:58:08;0.10;;;0.10;;
83728;SDS011;73707;56.480;-2.840;2024-02-26T05:00:34;0.65;;;0.20;;
83728;SDS011;73707;56.480;-2.840;2024-02-26T05:03:00;0.40;;;0.30;;
83728;SDS011;73707;56.480;-2.840;2024-02-26T05:05:25;0.32;;;0.17;;
83728;SDS011;73707;56.480;-2.840;2024-02-26T05:07:51;0.30;;;0.20;;
83728;SDS011;73707;56.480;-2.840;2024-02-26T05:10:17;0.50;;;0.10;;
83728;SDS011;73707;56.480;-2.840;2024-02-26T05:12:42;0.30;;;0.10;;
83728;SDS011;73707;56.480;-2.840;2024-02-26T05:15:09;0.10;;;0.10;;
83728;SDS011;73707;56.480;-2.840;2024-02-26T05:17:35;0.32;;;0.20;;
83728;SDS011;73707;56.480;-2.840;2024-02-26T05:20:00;1.30;;;0.30;;
83728;SDS011;73707;56.480;-2.840;2024-02-26T05:22:26;0.10;;;0.10;;
83728;SDS011;73707;56.480;-2.840;2024-02-26T05:24:51;1.00;;;0.20;;
83728;SDS011;73707;56.480;-2.840;2024-02-26T05:27:17;0.20;;;0.10;;
83728;SDS011;73707;56.480;-2.840;2024-02-26T05:29:43;0.70;;;0.10;;
83728;SDS011;73707;56.480;-2.840;2024-02-26T05:32:08;2.20;;;0.10;;
83728;SDS011;73707;56.480;-2.840;2024-02-26T05:34:34;0.15;;;0.00;;
83728;SDS011;73707;56.480;-2.840;2024-02-26T05:37:00;0.30;;;0.07;;
83728;SDS011;73707;56.480;-2.840;2024-02-26T05:39:25;0.10;;;0.03;;
83728;SDS011;73707;56.480;-2.840;2024-02-26T05:41:51;0.35;;;0.15;;
83728;SDS011;73707;56.480;-2.840;2024-02-26T05:44:17;0.03;;;0.00;;
83728;SDS011;73707;56.480;-2.840;2024-02-26T05:46:43;0.50;;;0.08;;
83728;SDS011;73707;56.480;-2.840;2024-02-26T05:49:08;0.10;;;0.10;;
83728;SDS011;73707;56.480;-2.840;2024-02-26T05:51:34;0.33;;;0.10;;
83728;SDS011;73707;56.480;-2.840;2024-02-26T05:54:00;0.05;;;0.05;;
83728;SDS011;73707;56.480;-2.840;2024-02-26T05:56:25;0.27;;;0.20;;
83728;SDS011;73707;56.480;-2.840;2024-02-26T05:58:51;0.32;;;0.10;;
83728;SDS011;73707;56.480;-2.840;2024-02-26T06:01:17;0.22;;;0.10;;
83728;SDS011;73707;56.480;-2.840;2024-02-26T06:03:45;0.43;;;0.15;;
83728;SDS011;73707;56.480;-2.840;2024-02-26T06:06:10;0.20;;;0.10;;
83728;SDS011;73707;56.480;-2.840;2024-02-26T06:08:36;0.13;;;0.08;;
83728;SDS011;73707;56.480;-2.840;2024-02-26T06:11:08;0.10;;;0.10;;
83728;SDS011;73707;56.480;-2.840;2024-02-26T06:13:34;0.73;;;0.30;;
83728;SDS011;73707;56.480;-2.840;2024-02-26T06:16:00;1.20;;;0.10;;
83728;SDS011;73707;56.480;-2.840;2024-02-26T06:18:26;0.30;;;0.10;;
83728;SDS011;73707;56.480;-2.840;2024-02-26T06:20:51;0.80;;;0.10;;
83728;SDS011;73707;56.480;-2.840;2024-02-26T06:23:17;0.00;;;0.00;;
83728;SDS011;73707;56.480;-2.840;2024-02-26T06:25:43;0.10;;;0.00;;
83728;SDS011;73707;56.480;-2.840;2024-02-26T06:28:09;0.10;;;0.03;;
83728;SDS011;73707;56.480;-2.840;2024-02-26T06:30:34;1.13;;;0.17;;
83728;SDS011;73707;56.480;-2.840;2024-02-26T06:33:01;0.55;;;0.03;;
83728;SDS011;73707;56.480;-2.840;2024-02-26T06:35:27;0.50;;;0.10;;
83728;SDS011;73707;56.480;-2.840;2024-02-26T06:37:52;0.90;;;0.05;;
83728;SDS011;73707;56.480;-2.840;2024-02-26T06:40:21;0.75;;;0.20;;
83728;SDS011;73707;56.480;-2.840;2024-02-26T06:42:47;4.57;;;0.73;;
83728;SDS011;73707;56.480;-2.840;2024-02-26T06:45:13;0.80;;;0.20;;
83728;SDS011;73707;56.480;-2.840;2024-02-26T06:47:38;0.43;;;0.20;;
83728;SDS011;73707;56.480;-2.840;2024-02-26T06:50:04;0.40;;;0.10;;
83728;SDS011;73707;56.480;-2.840;2024-02-26T06:52:30;0.40;;;0.10;;
83728;SDS011;73707;56.480;-2.840;2024-02-26T06:54:55;0.28;;;0.17;;
83728;SDS011;73707;56.480;-2.840;2024-02-26T06:57:21;1.23;;;0.20;;
83728;SDS011;73707;56.480;-2.840;2024-02-26T06:59:47;1.27;;;0.20;;
83728;SDS011;73707;56.480;-2.840;2024-02-26T07:02:13;0.67;;;0.30;;
83728;SDS011;73707;56.480;-2.840;2024-02-26T07:04:39;0.30;;;0.10;;
83728;SDS011;73707;56.480;-2.840;2024-02-26T07:07:05;1.10;;;0.10;;
83728;SDS011;73707;56.480;-2.840;2024-02-26T07:09:32;0.10;;;0.03;;
83728;SDS011;73707;56.480;-2.840;2024-02-26T07:11:57;0.50;;;0.10;;
83728;SDS011;73707;56.480;-2.840;2024-02-26T07:14:23;0.87;;;0.17;;
83728;SDS011;73707;56.480;-2.840;2024-02-26T07:16:50;2.40;;;0.30;;
83728;SDS011;73707;56.480;-2.840;2024-02-26T07:19:16;0.50;;;0.10;;
83728;SDS011;73707;56.480;-2.840;2024-02-26T07:21:41;0.35;;;0.15;;
83728;SDS011;73707;56.480;-2.840;2024-02-26T07:24:07;0.17;;;0.10;;
83728;SDS011;73707;56.480;-2.840;2024-02-26T07:26:33;0.60;;;0.10;;
83728;SDS011;73707;56.480;-2.840;2024-02-26T07:28:59;0.40;;;0.08;;
83728;SDS011;73707;56.480;-2.840;2024-02-26T07:31:26;0.38;;;0.17;;
83728;SDS011;73707;56.480;-2.840;2024-02-26T07:33:52;0.45;;;0.15;;
83728;SDS011;73707;56.480;-2.840;2024-02-26T07:36:17;0.20;;;0.10;;
83728;SDS011;73707;56.480;-2.840;2024-02-26T07:38:43;2.30;;;0.30;;
83728;SDS011;73707;56.480;-2.840;2024-02-26T07:41:09;2.17;;;0.20;;
83728;SDS011;73707;56.480;-2.840;2024-02-26T07:43:36;0.20;;;0.10;;
83728;SDS011;73707;56.480;-2.840;2024-02-26T07:46:02;0.83;;;0.27;;
83728;SDS011;73707;56.480;-2.840;2024-02-26T07:48:27;0.45;;;0.10;;
83728;SDS011;73707;56.480;-2.840;2024-02-26T07:50:53;0.57;;;0.30;;
83728;SDS011;73707;56.480;-2.840;2024-02-26T07:53:19;0.10;;;0.10;;
83728;SDS011;73707;56.480;-2.840;2024-02-26T07:55:44;1.30;;;0.20;;
83728;SDS011;73707;56.480;-2.840;2024-02-26T07:58:10;0.40;;;0.10;;
83728;SDS011;73707;56.480;-2.840;2024-02-26T08:00:36;0.38;;;0.10;;
83728;SDS011;73707;56.480;-2.840;2024-02-26T08:03:01;0.83;;;0.20;;
83728;SDS011;73707;56.480;-2.840;2024-02-26T08:05:27;0.82;;;0.20;;
83728;SDS011;73707;56.480;-2.840;2024-02-26T08:07:53;0.90;;;0.38;;
83728;SDS011;73707;56.480;-2.840;2024-02-26T08:10:19;1.17;;;0.40;;
83728;SDS011;73707;56.480;-2.840;2024-02-26T08:12:45;0.77;;;0.30;;
83728;SDS011;73707;56.480;-2.840;2024-02-26T08:15:11;1.10;;;0.28;;
83728;SDS011;73707;56.480;-2.840;2024-02-26T08:17:37;0.30;;;0.20;;
83728;SDS011;73707;56.480;-2.840;2024-02-26T08:20:03;0.60;;;0.10;;
83728;SDS011;73707;56.480;-2.840;2024-02-26T08:22:29;1.35;;;0.40;;
83728;SDS011;73707;56.480;-2.840;2024-02-26T08:24:55;0.60;;;0.20;;
83728;SDS011;73707;56.480;-2.840;2024-02-26T08:27:20;0.47;;;0.27;;
83728;SDS011;73707;56.480;-2.840;2024-02-26T08:29:46;0.68;;;0.15;;
83728;SDS011;73707;56.480;-2.840;2024-02-26T08:32:12;5.37;;;0.97;;
83728;SDS011;73707;56.480;-2.840;2024-02-26T08:34:37;1.40;;;0.30;;
83728;SDS011;73707;56.480;-2.840;2024-02-26T08:37:03;1.23;;;0.30;;
83728;SDS011;73707;56.480;-2.840;2024-02-26T08:39:29;1.75;;;0.40;;
83728;SDS011;73707;56.480;-2.840;2024-02-26T08:41:54;1.73;;;0.30;;
83728;SDS011;73707;56.480;-2.840;2024-02-26T08:44:20;0.40;;;0.30;;
83728;SDS011;73707;56.480;-2.840;2024-02-26T08:46:46;1.50;;;0.67;;
83728;SDS011;73707;56.480;-2.840;2024-02-26T08:49:11;1.10;;;0.20;;
83728;SDS011;73707;56.480;-2.840;2024-02-26T08:51:43;1.13;;;0.37;;
83728;SDS011;73707;56.480;-2.840;2024-02-26T08:54:09;2.10;;;0.20;;
83728;SDS011;73707;56.480;-2.840;2024-02-26T08:56:35;2.00;;;0.20;;
83728;SDS011;73707;56.480;-2.840;2024-02-26T08:59:00;1.23;;;0.20;;
83728;SDS011;73707;56.480;-2.840;2024-02-26T09:01:28;1.80;;;0.17;;
83728;SDS011;73707;56.480;-2.840;2024-02-26T09:03:56;0.43;;;0.20;;
83728;SDS011;73707;56.480;-2.840;2024-02-26T09:06:21;2.10;;;0.70;;
83728;SDS011;73707;56.480;-2.840;2024-02-26T09:08:47;1.77;;;0.45;;
83728;SDS011;73707;56.480;-2.840;2024-02-26T09:11:13;3.05;;;0.50;;
83728;SDS011;73707;56.480;-2.840;2024-02-26T09:13:39;0.73;;;0.22;;
83728;SDS011;73707;56.480;-2.840;2024-02-26T09:16:05;1.75;;;0.38;;
83728;SDS011;73707;56.480;-2.840;2024-02-26T09:18:31;0.80;;;0.30;;
83728;SDS011;73707;56.480;-2.840;2024-02-26T09:20:56;0.90;;;0.20;;
83728;SDS011;73707;56.480;-2.840;2024-02-26T09:23:22;1.40;;;0.32;;
83728;SDS011;73707;56.480;-2.840;2024-02-26T09:25:48;1.30;;;0.27;;
83728;SDS011;73707;56.480;-2.840;2024-02-26T09:28:13;2.03;;;0.50;;
83728;SDS011;73707;56.480;-2.840;2024-02-26T09:30:42;0.75;;;0.28;;
83728;SDS011;73707;56.480;-2.840;2024-02-26T09:33:08;0.43;;;0.10;;
83728;SDS011;73707;56.480;-2.840;2024-02-26T09:35:34;1.97;;;0.20;;
83728;SDS011;73707;56.480;-2.840;2024-02-26T09:37:59;1.33;;;0.22;;
83728;SDS011;73707;56.480;-2.840;2024-02-26T09:40:26;1.95;;;0.30;;
83728;SDS011;73707;56.480;-2.840;2024-02-26T09:42:53;2.03;;;0.40;;
83728;SDS011;73707;56.480;-2.840;2024-02-26T09:45:25;1.30;;;0.30;;
83728;SDS011;73707;56.480;-2.840;2024-02-26T09:47:52;1.30;;;0.20;;
83728;SDS011;73707;56.480;-2.840;2024-02-26T09:50:23;1.50;;;0.40;;
83728;SDS011;73707;56.480;-2.840;2024-02-26T09:52:49;0.88;;;0.15;;
83728;SDS011;73707;56.480;-2.840;2024-02-26T09:55:17;0.80;;;0.20;;
83728;SDS011;73707;56.480;-2.840;2024-02-26T09:57:46;1.60;;;0.60;;
83728;SDS011;73707;56.480;-2.840;2024-02-26T10:00:19;3.90;;;0.57;;
83728;SDS011;73707;56.480;-2.840;2024-02-26T10:02:47;0.70;;;0.13;;
83728;SDS011;73707;56.480;-2.840;2024-02-26T10:05:14;2.50;;;0.43;;
83728;SDS011;73707;56.480;-2.840;2024-02-26T10:07:44;2.10;;;0.20;;
83728;SDS011;73707;56.480;-2.840;2024-02-26T10:10:11;0.40;;;0.10;;
83728;SDS011;73707;56.480;-2.840;2024-02-26T10:12:37;1.65;;;0.40;;
83728;SDS011;73707;56.480;-2.840;2024-02-26T10:15:03;1.63;;;0.60;;
83728;SDS011;73707;56.480;-2.840;2024-02-26T10:17:29;1.30;;;0.30;;
83728;SDS011;73707;56.480;-2.840;2024-02-26T10:19:59;0.90;;;0.20;;
83728;SDS011;73707;56.480;-2.840;2024-02-26T10:22:42;1.52;;;0.20;;
83728;SDS011;73707;56.480;-2.840;2024-02-26T10:25:09;1.50;;;0.30;;
83728;SDS011;73707;56.480;-2.840;2024-02-26T10:27:35;3.72;;;0.63;;
83728;SDS011;73707;56.480;-2.840;2024-02-26T10:30:04;4.18;;;0.55;;
83728;SDS011;73707;56.480;-2.840;2024-02-26T10:32:46;0.93;;;0.20;;
83728;SDS011;73707;56.480;-2.840;2024-02-26T10:35:13;2.05;;;0.63;;
83728;SDS011;73707;56.480;-2.840;2024-02-26T10:37:40;1.33;;;0.45;;
83728;SDS011;73707;56.480;-2.840;2024-02-26T10:40:09;2.05;;;0.50;;
83728;SDS011;73707;56.480;-2.840;2024-02-26T10:42:39;1.80;;;0.30;;
83728;SDS011;73707;56.480;-2.840;2024-02-26T10:45:05;2.13;;;0.57;;
83728;SDS011;73707;56.480;-2.840;2024-02-26T10:47:32;2.33;;;0.43;;
83728;SDS011;73707;56.480;-2.840;2024-02-26T10:49:59;2.80;;;0.60;;
83728;SDS011;73707;56.480;-2.840;2024-02-26T10:52:26;2.00;;;0.80;;
83728;SDS011;73707;56.480;-2.840;2024-02-26T10:54:56;1.15;;;0.65;;
83728;SDS011;73707;56.480;-2.840;2024-02-26T10:57:24;2.90;;;0.20;;
83728;SDS011;73707;56.480;-2.840;2024-02-26T10:59:51;0.70;;;0.20;;
83728;SDS011;73707;56.480;-2.840;2024-02-26T11:02:19;1.95;;;0.40;;
83728;SDS011;73707;56.480;-2.840;2024-02-26T11:04:46;0.97;;;0.30;;
83728;SDS011;73707;56.480;-2.840;2024-02-26T11:07:12;1.40;;;0.40;;
83728;SDS011;73707;56.480;-2.840;2024-02-26T11:09:39;0.97;;;0.10;;
83728;SDS011;73707;56.480;-2.840;2024-02-26T11:12:10;0.90;;;0.45;;
83728;SDS011;73707;56.480;-2.840;2024-02-26T11:14:38;1.30;;;0.30;;
83728;SDS011;73707;56.480;-2.840;2024-02-26T11:17:07;0.90;;;0.38;;
83728;SDS011;73707;56.480;-2.840;2024-02-26T11:19:35;0.60;;;0.40;;
83728;SDS011;73707;56.480;-2.840;2024-02-26T11:22:01;0.50;;;0.25;;
83728;SDS011;73707;56.480;-2.840;2024-02-26T11:24:27;2.47;;;0.20;;
83728;SDS011;73707;56.480;-2.840;2024-02-26T11:26:54;0.98;;;0.45;;
83728;SDS011;73707;56.480;-2.840;2024-02-26T11:29:25;2.40;;;0.35;;
83728;SDS011;73707;56.480;-2.840;2024-02-26T11:32:03;0.80;;;0.50;;
83728;SDS011;73707;56.480;-2.840;2024-02-26T11:34:31;3.90;;;0.40;;
83728;SDS011;73707;56.480;-2.840;2024-02-26T11:36:56;1.10;;;0.52;;
83728;SDS011;73707;56.480;-2.840;2024-02-26T11:39:23;1.15;;;0.40;;
83728;SDS011;73707;56.480;-2.840;2024-02-26T11:41:50;2.10;;;0.77;;
83728;SDS011;73707;56.480;-2.840;2024-02-26T11:44:24;3.30;;;0.88;;
83728;SDS011;73707;56.480;-2.840;2024-02-26T11:46:54;3.30;;;0.70;;
83728;SDS011;73707;56.480;-2.840;2024-02-26T11:51:54;3.13;;;0.80;;
83728;SDS011;73707;56.480;-2.840;2024-02-26T11:57:22;7.53;;;1.20;;
83728;SDS011;73707;56.480;-2.840;2024-02-26T11:59:49;4.07;;;0.90;;
83728;SDS011;73707;56.480;-2.840;2024-02-26T12:05:10;2.42;;;0.82;;
83728;SDS011;73707;56.480;-2.840;2024-02-26T12:07:44;2.15;;;0.93;;
83728;SDS011;73707;56.480;-2.840;2024-02-26T12:10:26;2.10;;;0.90;;
83728;SDS011;73707;56.480;-2.840;2024-02-26T12:12:54;7.57;;;1.83;;
83728;SDS011;73707;56.480;-2.840;2024-02-26T12:15:24;2.20;;;0.77;;
83728;SDS011;73707;56.480;-2.840;2024-02-26T12:17:56;1.98;;;0.65;;
83728;SDS011;73707;56.480;-2.840;2024-02-26T12:20:22;5.13;;;0.80;;
83728;SDS011;73707;56.480;-2.840;2024-02-26T12:22:49;2.17;;;0.65;;
83728;SDS011;73707;56.480;-2.840;2024-02-26T12:25:17;1.35;;;0.70;;
83728;SDS011;73707;56.480;-2.840;2024-02-26T12:27:47;2.40;;;0.82;;
83728;SDS011;73707;56.480;-2.840;2024-02-26T12:30:13;1.50;;;0.43;;
83728;SDS011;73707;56.480;-2.840;2024-02-26T12:32:39;3.63;;;0.90;;
83728;SDS011;73707;56.480;-2.840;2024-02-26T12:35:05;0.75;;;0.50;;
83728;SDS011;73707;56.480;-2.840;2024-02-26T12:37:31;2.73;;;0.80;;
83728;SDS011;73707;56.480;-2.840;2024-02-26T12:39:57;2.40;;;0.93;;
83728;SDS011;73707;56.480;-2.840;2024-02-26T12:42:23;2.25;;;0.65;;
83728;SDS011;73707;56.480;-2.840;2024-02-26T12:44:49;2.40;;;0.80;;
83728;SDS011;73707;56.480;-2.840;2024-02-26T12:47:16;1.92;;;0.57;;
83728;SDS011;73707;56.480;-2.840;2024-02-26T12:49:43;3.67;;;0.73;;
83728;SDS011;73707;56.480;-2.840;2024-02-26T12:52:12;1.27;;;0.40;;
83728;SDS011;73707;56.480;-2.840;2024-02-26T12:54:38;1.40;;;0.30;;
83728;SDS011;73707;56.480;-2.840;2024-02-26T12:57:06;1.30;;;0.28;;
83728;SDS011;73707;56.480;-2.840;2024-02-26T12:59:33;1.48;;;0.75;;
83728;SDS011;73707;56.480;-2.840;2024-02-26T13:02:00;1.27;;;0.38;;
83728;SDS011;73707;56.480;-2.840;2024-02-26T13:04:27;3.35;;;0.70;;
83728;SDS011;73707;56.480;-2.840;2024-02-26T13:06:54;1.30;;;0.70;;
83728;SDS011;73707;56.480;-2.840;2024-02-26T13:09:20;1.27;;;0.40;;
83728;SDS011;73707;56.480;-2.840;2024-02-26T13:11:53;1.08;;;0.30;;
83728;SDS011;73707;56.480;-2.840;2024-02-26T13:14:21;3.00;;;0.60;;
83728;SDS011;73707;56.480;-2.840;2024-02-26T13:16:54;1.38;;;0.63;;
83728;SDS011;73707;56.480;-2.840;2024-02-26T13:19:21;1.50;;;0.40;;
83728;SDS011;73707;56.480;-2.840;2024-02-26T13:21:46;0.97;;;0.40;;
83728;SDS011;73707;56.480;-2.840;2024-02-26T13:24:12;2.90;;;0.33;;
83728;SDS011;73707;56.480;-2.840;2024-02-26T13:26:38;0.83;;;0.33;;
83728;SDS011;73707;56.480;-2.840;2024-02-26T13:29:04;1.60;;;0.40;;
83728;SDS011;73707;56.480;-2.840;2024-02-26T13:31:30;2.60;;;0.30;;
83728;SDS011;73707;56.480;-2.840;2024-02-26T13:33:56;0.30;;;0.20;;
83728;SDS011;73707;56.480;-2.840;2024-02-26T13:36:23;1.15;;;0.43;;
83728;SDS011;73707;56.480;-2.840;2024-02-26T13:38:55;1.40;;;0.32;;
83728;SDS011;73707;56.480;-2.840;2024-02-26T13:41:23;1.05;;;0.38;;
83728;SDS011;73707;56.480;-2.840;2024-02-26T13:43:50;0.47;;;0.30;;
83728;SDS011;73707;56.480;-2.840;2024-02-26T13:46:15;0.80;;;0.25;;
83728;SDS011;73707;56.480;-2.840;2024-02-26T13:48:42;0.40;;;0.28;;
83728;SDS011;73707;56.480;-2.840;2024-02-26T13:51:08;1.48;;;0.47;;
83728;SDS011;73707;56.480;-2.840;2024-02-26T13:53:34;0.75;;;0.20;;
83728;SDS011;73707;56.480;-2.840;2024-02-26T13:56:00;0.43;;;0.20;;
83728;SDS011;73707;56.480;-2.840;2024-02-26T13:58:29;0.47;;;0.30;;
83728;SDS011;73707;56.480;-2.840;2024-02-26T14:00:55;1.90;;;0.27;;
83728;SDS011;73707;56.480;-2.840;2024-02-26T14:03:21;2.08;;;0.38;;
83728;SDS011;73707;56.480;-2.840;2024-02-26T14:05:47;0.80;;;0.20;;
83728;SDS011;73707;56.480;-2.840;2024-02-26T14:08:13;0.68;;;0.28;;
83728;SDS011;73707;56.480;-2.840;2024-02-26T14:10:39;1.25;;;0.35;;
83728;SDS011;73707;56.480;-2.840;2024-02-26T14:13:05;1.02;;;0.30;;
83728;SDS011;73707;56.480;-2.840;2024-02-26T14:15:31;2.23;;;0.57;;
83728;SDS011;73707;56.480;-2.840;2024-02-26T14:17:57;0.38;;;0.28;;
83728;SDS011;73707;56.480;-2.840;2024-02-26T14:20:23;1.70;;;0.50;;
83728;SDS011;73707;56.480;-2.840;2024-02-26T14:22:50;0.60;;;0.30;;
83728;SDS011;73707;56.480;-2.840;2024-02-26T14:25:19;0.47;;;0.30;;
83728;SDS011;73707;56.480;-2.840;2024-02-26T14:27:48;1.15;;;0.40;;
83728;SDS011;73707;56.480;-2.840;2024-02-26T14:30:14;1.30;;;0.30;;
83728;SDS011;73707;56.480;-2.840;2024-02-26T14:32:40;1.10;;;0.40;;
83728;SDS011;73707;56.480;-2.840;2024-02-26T14:35:07;0.60;;;0.47;;
83728;SDS011;73707;56.480;-2.840;2024-02-26T14:37:34;0.93;;;0.17;;